sensor_id;sensor_type;location;lat;lon;timestamp;P1;durP1;ratioP1;P2;durP2;ratioP2
15102;SDS011;7652;53.584;9.998;2023-01-24T00:00:49;19.10;;;9.77;;
15102;SDS011;7652;53.584;9.998;2023-01-24T00:03:52;14.27;;;9.30;;
15102;SDS011;7652;53.584;9.998;2023-01-24T00:06:55;18.33;;;9.47;;
15102;SDS011;7652;53.584;9.998;2023-01-24T00:09:58;17.40;;;9.37;;
15102;SDS011;7652;53.584;9.998;2023-01-24T00:13:03;16.50;;;8.83;;
15102;SDS011;7652;53.584;9.998;2023-01-24T00:16:07;15.80;;;9.27;;
15102;SDS011;7652;53.584;9.998;2023-01-24T00:19:12;17.93;;;10.03;;
15102;SDS011;7652;53.584;9.998;2023-01-24T00:22:15;15.63;;;9.47;;
15102;SDS011;7652;53.584;9.998;2023-01-24T00:25:18;17.10;;;9.93;;
15102;SDS011;7652;53.584;9.998;2023-01-24T00:28:22;17.20;;;10.57;;
15102;SDS011;7652;53.584;9.998;2023-01-24T00:31:25;15.13;;;8.43;;
15102;SDS011;7652;53.584;9.998;2023-01-24T00:34:28;15.87;;;9.00;;
15102;SDS011;7652;53.584;9.998;2023-01-24T00:37:32;15.73;;;9.17;;
15102;SDS011;7652;53.584;9.998;2023-01-24T00:40:35;15.83;;;9.07;;
15102;SDS011;7652;53.584;9.998;2023-01-24T00:43:39;16.03;;;8.50;;
15102;SDS011;7652;53.584;9.998;2023-01-24T00:46:42;14.27;;;8.73;;
15102;SDS011;7652;53.584;9.998;2023-01-24T00:49:45;14.03;;;8.33;;
15102;SDS011;7652;53.584;9.998;2023-01-24T00:52:48;15.07;;;8.43;;
15102;SDS011;7652;53.584;9.998;2023-01-24T00:55:51;14.50;;;8.77;;
15102;SDS011;7652;53.584;9.998;2023-01-24T00:58:57;14.70;;;9.30;;
15102;SDS011;7652;53.584;9.998;2023-01-24T01:02:00;14.23;;;7.93;;
15102;SDS011;7652;53.584;9.998;2023-01-24T01:05:03;17.10;;;8.97;;
15102;SDS011;7652;53.584;9.998;2023-01-24T01:08:07;14.27;;;7.60;;
15102;SDS011;7652;53.584;9.998;2023-01-24T01:11:10;15.00;;;8.03;;
15102;SDS011;7652;53.584;9.998;2023-01-24T01:14:15;15.50;;;9.57;;
15102;SDS011;7652;53.584;9.998;2023-01-24T01:17:18;15.47;;;7.70;;
15102;SDS011;7652;53.584;9.998;2023-01-24T01:20:21;11.17;;;7.50;;
15102;SDS011;7652;53.584;9.998;2023-01-24T01:23:24;16.10;;;8.77;;
15102;SDS011;7652;53.584;9.998;2023-01-24T01:26:27;14.00;;;7.97;;
15102;SDS011;7652;53.584;9.998;2023-01-24T01:29:31;13.50;;;7.90;;
15102;SDS011;7652;53.584;9.998;2023-01-24T01:32:35;12.70;;;8.10;;
15102;SDS011;7652;53.584;9.998;2023-01-24T01:35:38;14.73;;;8.43;;
15102;SDS011;7652;53.584;9.998;2023-01-24T01:38:41;11.27;;;7.40;;
15102;SDS011;7652;53.584;9.998;2023-01-24T01:41:44;12.83;;;7.97;;
15102;SDS011;7652;53.584;9.998;2023-01-24T01:44:49;13.07;;;8.67;;
15102;SDS011;7652;53.584;9.998;2023-01-24T01:47:52;13.63;;;8.97;;
15102;SDS011;7652;53.584;9.998;2023-01-24T01:50:58;14.77;;;8.57;;
15102;SDS011;7652;53.584;9.998;2023-01-24T01:54:07;14.50;;;8.37;;
15102;SDS011;7652;53.584;9.998;2023-01-24T01:57:14;13.80;;;7.33;;
15102;SDS011;7652;53.584;9.998;2023-01-24T02:00:22;15.97;;;8.93;;
15102;SDS011;7652;53.584;9.998;2023-01-24T02:03:28;12.30;;;7.70;;
15102;SDS011;7652;53.584;9.998;2023-01-24T02:06:43;13.63;;;7.70;;
15102;SDS011;7652;53.584;9.998;2023-01-24T02:09:53;16.07;;;8.20;;
15102;SDS011;7652;53.584;9.998;2023-01-24T02:12:58;14.00;;;7.47;;
15102;SDS011;7652;53.584;9.998;2023-01-24T02:16:02;16.10;;;8.93;;
15102;SDS011;7652;53.584;9.998;2023-01-24T02:19:05;14.57;;;8.63;;
15102;SDS011;7652;53.584;9.998;2023-01-24T02:22:13;13.97;;;8.57;;
15102;SDS011;7652;53.584;9.998;2023-01-24T02:25:21;13.47;;;8.27;;
15102;SDS011;7652;53.584;9.998;2023-01-24T02:28:30;12.00;;;8.00;;
15102;SDS011;7652;53.584;9.998;2023-01-24T02:34:54;13.50;;;7.73;;
15102;SDS011;7652;53.584;9.998;2023-01-24T02:37:58;13.87;;;8.10;;
15102;SDS011;7652;53.584;9.998;2023-01-24T02:41:05;12.10;;;7.60;;
15102;SDS011;7652;53.584;9.998;2023-01-24T02:44:11;11.30;;;7.40;;
15102;SDS011;7652;53.584;9.998;2023-01-24T02:47:19;14.20;;;8.47;;
15102;SDS011;7652;53.584;9.998;2023-01-24T02:50:23;14.23;;;8.70;;
15102;SDS011;7652;53.584;9.998;2023-01-24T02:53:27;13.23;;;8.03;;
15102;SDS011;7652;53.584;9.998;2023-01-24T02:56:32;14.37;;;8.80;;
15102;SDS011;7652;53.584;9.998;2023-01-24T02:59:54;13.90;;;8.20;;
15102;SDS011;7652;53.584;9.998;2023-01-24T03:02:57;14.43;;;7.93;;
15102;SDS011;7652;53.584;9.998;2023-01-24T03:06:00;12.20;;;7.47;;
15102;SDS011;7652;53.584;9.998;2023-01-24T03:09:03;12.67;;;7.60;;
15102;SDS011;7652;53.584;9.998;2023-01-24T03:12:19;14.43;;;7.43;;
15102;SDS011;7652;53.584;9.998;2023-01-24T03:15:41;10.93;;;7.73;;
15102;SDS011;7652;53.584;9.998;2023-01-24T03:19:02;14.87;;;8.80;;
15102;SDS011;7652;53.584;9.998;2023-01-24T03:22:23;12.77;;;7.47;;
15102;SDS011;7652;53.584;9.998;2023-01-24T03:25:43;11.37;;;7.90;;
15102;SDS011;7652;53.584;9.998;2023-01-24T03:29:03;10.90;;;7.60;;
15102;SDS011;7652;53.584;9.998;2023-01-24T03:32:25;14.87;;;7.87;;
15102;SDS011;7652;53.584;9.998;2023-01-24T03:35:47;16.60;;;8.87;;
15102;SDS011;7652;53.584;9.998;2023-01-24T03:38:54;14.53;;;7.67;;
15102;SDS011;7652;53.584;9.998;2023-01-24T03:42:15;13.00;;;8.33;;
15102;SDS011;7652;53.584;9.998;2023-01-24T03:45:19;12.50;;;7.47;;
15102;SDS011;7652;53.584;9.998;2023-01-24T03:48:25;13.73;;;8.33;;
15102;SDS011;7652;53.584;9.998;2023-01-24T03:51:35;14.07;;;8.47;;
15102;SDS011;7652;53.584;9.998;2023-01-24T03:54:56;18.10;;;9.40;;
15102;SDS011;7652;53.584;9.998;2023-01-24T03:57:59;14.63;;;8.57;;
15102;SDS011;7652;53.584;9.998;2023-01-24T04:01:02;15.67;;;8.37;;
15102;SDS011;7652;53.584;9.998;2023-01-24T04:04:07;12.10;;;7.47;;
15102;SDS011;7652;53.584;9.998;2023-01-24T04:07:10;13.77;;;8.10;;
15102;SDS011;7652;53.584;9.998;2023-01-24T04:10:27;13.20;;;8.13;;
15102;SDS011;7652;53.584;9.998;2023-01-24T04:13:30;12.87;;;7.40;;
15102;SDS011;7652;53.584;9.998;2023-01-24T04:16:33;15.40;;;8.83;;
15102;SDS011;7652;53.584;9.998;2023-01-24T04:19:37;11.70;;;7.53;;
15102;SDS011;7652;53.584;9.998;2023-01-24T04:22:40;11.50;;;8.20;;
15102;SDS011;7652;53.584;9.998;2023-01-24T04:25:48;14.90;;;7.27;;
15102;SDS011;7652;53.584;9.998;2023-01-24T04:28:55;12.87;;;7.87;;
15102;SDS011;7652;53.584;9.998;2023-01-24T04:31:58;16.60;;;8.33;;
15102;SDS011;7652;53.584;9.998;2023-01-24T04:35:03;11.10;;;7.20;;
15102;SDS011;7652;53.584;9.998;2023-01-24T04:38:07;12.27;;;7.27;;
15102;SDS011;7652;53.584;9.998;2023-01-24T04:41:10;11.87;;;7.63;;
15102;SDS011;7652;53.584;9.998;2023-01-24T04:44:15;9.83;;;6.73;;
15102;SDS011;7652;53.584;9.998;2023-01-24T04:47:18;11.17;;;6.83;;
15102;SDS011;7652;53.584;9.998;2023-01-24T04:50:23;13.17;;;7.83;;
15102;SDS011;7652;53.584;9.998;2023-01-24T04:53:26;10.37;;;6.83;;
15102;SDS011;7652;53.584;9.998;2023-01-24T04:56:30;11.50;;;7.17;;
15102;SDS011;7652;53.584;9.998;2023-01-24T04:59:33;13.70;;;7.50;;
15102;SDS011;7652;53.584;9.998;2023-01-24T05:02:36;12.83;;;6.80;;
15102;SDS011;7652;53.584;9.998;2023-01-24T05:05:40;12.13;;;7.13;;
15102;SDS011;7652;53.584;9.998;2023-01-24T05:08:43;8.80;;;6.30;;
15102;SDS011;7652;53.584;9.998;2023-01-24T05:11:46;9.87;;;6.73;;
15102;SDS011;7652;53.584;9.998;2023-01-24T05:14:49;10.07;;;5.13;;
15102;SDS011;7652;53.584;9.998;2023-01-24T05:17:52;7.87;;;5.30;;
15102;SDS011;7652;53.584;9.998;2023-01-24T05:20:57;7.50;;;5.07;;
15102;SDS011;7652;53.584;9.998;2023-01-24T05:24:07;7.00;;;3.87;;
15102;SDS011;7652;53.584;9.998;2023-01-24T05:27:10;6.00;;;4.40;;
15102;SDS011;7652;53.584;9.998;2023-01-24T05:30:13;6.23;;;3.90;;
15102;SDS011;7652;53.584;9.998;2023-01-24T05:33:16;4.83;;;3.73;;
15102;SDS011;7652;53.584;9.998;2023-01-24T05:36:21;4.70;;;3.83;;
15102;SDS011;7652;53.584;9.998;2023-01-24T05:39:26;7.67;;;4.83;;
15102;SDS011;7652;53.584;9.998;2023-01-24T05:42:29;6.53;;;4.67;;
15102;SDS011;7652;53.584;9.998;2023-01-24T05:45:32;6.20;;;3.93;;
15102;SDS011;7652;53.584;9.998;2023-01-24T05:48:35;5.83;;;4.53;;
15102;SDS011;7652;53.584;9.998;2023-01-24T05:51:40;4.50;;;3.73;;
15102;SDS011;7652;53.584;9.998;2023-01-24T05:54:43;6.93;;;4.20;;
15102;SDS011;7652;53.584;9.998;2023-01-24T05:57:46;5.30;;;3.83;;
15102;SDS011;7652;53.584;9.998;2023-01-24T06:00:48;7.27;;;4.47;;
15102;SDS011;7652;53.584;9.998;2023-01-24T06:03:52;6.37;;;4.57;;
15102;SDS011;7652;53.584;9.998;2023-01-24T06:06:57;4.90;;;4.20;;
15102;SDS011;7652;53.584;9.998;2023-01-24T06:10:00;8.00;;;4.37;;
15102;SDS011;7652;53.584;9.998;2023-01-24T06:13:03;5.97;;;4.13;;
15102;SDS011;7652;53.584;9.998;2023-01-24T06:16:06;5.83;;;4.23;;
15102;SDS011;7652;53.584;9.998;2023-01-24T06:19:12;5.63;;;4.40;;
15102;SDS011;7652;53.584;9.998;2023-01-24T06:22:20;4.93;;;3.90;;
15102;SDS011;7652;53.584;9.998;2023-01-24T06:25:28;7.07;;;4.73;;
15102;SDS011;7652;53.584;9.998;2023-01-24T06:28:31;7.77;;;4.40;;
15102;SDS011;7652;53.584;9.998;2023-01-24T06:31:37;6.07;;;3.77;;
15102;SDS011;7652;53.584;9.998;2023-01-24T06:34:57;4.97;;;4.17;;
15102;SDS011;7652;53.584;9.998;2023-01-24T06:38:14;6.43;;;4.40;;
15102;SDS011;7652;53.584;9.998;2023-01-24T06:41:21;5.47;;;4.53;;
15102;SDS011;7652;53.584;9.998;2023-01-24T06:44:25;5.93;;;4.70;;
15102;SDS011;7652;53.584;9.998;2023-01-24T06:47:28;6.93;;;3.87;;
15102;SDS011;7652;53.584;9.998;2023-01-24T06:50:31;5.43;;;4.03;;
15102;SDS011;7652;53.584;9.998;2023-01-24T06:53:36;7.23;;;4.70;;
15102;SDS011;7652;53.584;9.998;2023-01-24T06:56:39;6.93;;;4.43;;
15102;SDS011;7652;53.584;9.998;2023-01-24T06:59:42;6.43;;;4.50;;
15102;SDS011;7652;53.584;9.998;2023-01-24T07:02:45;6.50;;;4.50;;
15102;SDS011;7652;53.584;9.998;2023-01-24T07:05:48;7.40;;;4.27;;
15102;SDS011;7652;53.584;9.998;2023-01-24T07:08:52;6.27;;;4.77;;
15102;SDS011;7652;53.584;9.998;2023-01-24T07:11:55;5.73;;;4.47;;
15102;SDS011;7652;53.584;9.998;2023-01-24T07:14:59;6.23;;;4.40;;
15102;SDS011;7652;53.584;9.998;2023-01-24T07:18:05;6.40;;;4.77;;
15102;SDS011;7652;53.584;9.998;2023-01-24T07:21:09;8.80;;;5.63;;
15102;SDS011;7652;53.584;9.998;2023-01-24T07:24:15;6.57;;;4.73;;
15102;SDS011;7652;53.584;9.998;2023-01-24T07:27:21;6.43;;;4.97;;
15102;SDS011;7652;53.584;9.998;2023-01-24T07:30:24;7.67;;;5.00;;
15102;SDS011;7652;53.584;9.998;2023-01-24T07:33:29;6.37;;;4.83;;
15102;SDS011;7652;53.584;9.998;2023-01-24T07:36:32;7.57;;;5.00;;
15102;SDS011;7652;53.584;9.998;2023-01-24T07:39:36;8.33;;;5.90;;
15102;SDS011;7652;53.584;9.998;2023-01-24T07:42:39;8.07;;;4.70;;
15102;SDS011;7652;53.584;9.998;2023-01-24T07:45:44;7.10;;;4.77;;
15102;SDS011;7652;53.584;9.998;2023-01-24T07:48:47;7.23;;;4.93;;
15102;SDS011;7652;53.584;9.998;2023-01-24T07:51:50;8.87;;;5.23;;
15102;SDS011;7652;53.584;9.998;2023-01-24T07:54:55;8.23;;;5.37;;
15102;SDS011;7652;53.584;9.998;2023-01-24T07:57:58;6.80;;;4.93;;
15102;SDS011;7652;53.584;9.998;2023-01-24T08:01:02;12.13;;;5.80;;
15102;SDS011;7652;53.584;9.998;2023-01-24T08:04:05;6.03;;;4.67;;
15102;SDS011;7652;53.584;9.998;2023-01-24T08:07:08;7.83;;;5.20;;
15102;SDS011;7652;53.584;9.998;2023-01-24T08:10:21;10.10;;;6.47;;
15102;SDS011;7652;53.584;9.998;2023-01-24T08:13:25;8.07;;;5.63;;
15102;SDS011;7652;53.584;9.998;2023-01-24T08:16:28;7.53;;;5.10;;
15102;SDS011;7652;53.584;9.998;2023-01-24T08:19:31;6.70;;;4.87;;
15102;SDS011;7652;53.584;9.998;2023-01-24T08:22:54;7.40;;;5.07;;
15102;SDS011;7652;53.584;9.998;2023-01-24T08:26:00;5.20;;;4.47;;
15102;SDS011;7652;53.584;9.998;2023-01-24T08:29:04;7.23;;;5.23;;
15102;SDS011;7652;53.584;9.998;2023-01-24T08:32:07;7.30;;;5.23;;
15102;SDS011;7652;53.584;9.998;2023-01-24T08:35:10;6.80;;;4.70;;
15102;SDS011;7652;53.584;9.998;2023-01-24T08:38:13;7.63;;;5.33;;
15102;SDS011;7652;53.584;9.998;2023-01-24T08:41:18;6.73;;;4.87;;
15102;SDS011;7652;53.584;9.998;2023-01-24T08:44:21;8.60;;;5.33;;
15102;SDS011;7652;53.584;9.998;2023-01-24T08:47:24;7.57;;;5.47;;
15102;SDS011;7652;53.584;9.998;2023-01-24T08:50:28;6.17;;;4.83;;
15102;SDS011;7652;53.584;9.998;2023-01-24T08:53:32;8.07;;;5.23;;
15102;SDS011;7652;53.584;9.998;2023-01-24T08:56:37;7.33;;;5.53;;
15102;SDS011;7652;53.584;9.998;2023-01-24T08:59:40;6.37;;;5.10;;
15102;SDS011;7652;53.584;9.998;2023-01-24T09:02:43;8.33;;;5.20;;
15102;SDS011;7652;53.584;9.998;2023-01-24T09:05:45;6.17;;;4.50;;
15102;SDS011;7652;53.584;9.998;2023-01-24T09:08:50;7.83;;;5.00;;
15102;SDS011;7652;53.584;9.998;2023-01-24T09:11:55;6.73;;;4.70;;
15102;SDS011;7652;53.584;9.998;2023-01-24T09:14:58;7.67;;;4.13;;
15102;SDS011;7652;53.584;9.998;2023-01-24T09:18:01;8.23;;;6.00;;
15102;SDS011;7652;53.584;9.998;2023-01-24T09:21:05;7.40;;;4.90;;
15102;SDS011;7652;53.584;9.998;2023-01-24T09:24:08;6.93;;;4.70;;
15102;SDS011;7652;53.584;9.998;2023-01-24T09:27:12;5.73;;;4.60;;
15102;SDS011;7652;53.584;9.998;2023-01-24T09:30:15;7.93;;;4.60;;
15102;SDS011;7652;53.584;9.998;2023-01-24T09:33:19;5.17;;;4.43;;
15102;SDS011;7652;53.584;9.998;2023-01-24T09:36:23;6.77;;;4.33;;
15102;SDS011;7652;53.584;9.998;2023-01-24T09:39:26;5.33;;;4.50;;
15102;SDS011;7652;53.584;9.998;2023-01-24T09:42:32;9.80;;;5.00;;
15102;SDS011;7652;53.584;9.998;2023-01-24T09:45:41;6.00;;;4.30;;
15102;SDS011;7652;53.584;9.998;2023-01-24T09:48:53;6.30;;;4.70;;
15102;SDS011;7652;53.584;9.998;2023-01-24T09:52:01;7.73;;;4.93;;
15102;SDS011;7652;53.584;9.998;2023-01-24T09:55:10;8.03;;;4.70;;
15102;SDS011;7652;53.584;9.998;2023-01-24T09:58:22;6.10;;;4.90;;
15102;SDS011;7652;53.584;9.998;2023-01-24T10:01:32;7.60;;;5.10;;
15102;SDS011;7652;53.584;9.998;2023-01-24T10:04:36;6.33;;;5.40;;
15102;SDS011;7652;53.584;9.998;2023-01-24T10:11:19;6.90;;;5.40;;
15102;SDS011;7652;53.584;9.998;2023-01-24T10:14:33;9.90;;;6.20;;
15102;SDS011;7652;53.584;9.998;2023-01-24T10:17:50;6.07;;;4.63;;
15102;SDS011;7652;53.584;9.998;2023-01-24T10:21:07;9.07;;;5.03;;
15102;SDS011;7652;53.584;9.998;2023-01-24T10:24:37;8.17;;;4.73;;
15102;SDS011;7652;53.584;9.998;2023-01-24T10:27:44;8.87;;;5.37;;
15102;SDS011;7652;53.584;9.998;2023-01-24T10:30:53;6.53;;;4.80;;
15102;SDS011;7652;53.584;9.998;2023-01-24T10:34:07;6.03;;;4.73;;
15102;SDS011;7652;53.584;9.998;2023-01-24T10:37:15;7.33;;;4.37;;
15102;SDS011;7652;53.584;9.998;2023-01-24T10:40:23;7.17;;;4.10;;
15102;SDS011;7652;53.584;9.998;2023-01-24T10:43:28;7.90;;;4.80;;
15102;SDS011;7652;53.584;9.998;2023-01-24T10:50:19;7.27;;;4.63;;
15102;SDS011;7652;53.584;9.998;2023-01-24T10:53:25;7.33;;;4.93;;
15102;SDS011;7652;53.584;9.998;2023-01-24T10:56:31;7.87;;;5.00;;
15102;SDS011;7652;53.584;9.998;2023-01-24T10:59:40;5.80;;;4.53;;
15102;SDS011;7652;53.584;9.998;2023-01-24T11:02:46;6.53;;;4.63;;
15102;SDS011;7652;53.584;9.998;2023-01-24T11:05:51;8.83;;;4.90;;
15102;SDS011;7652;53.584;9.998;2023-01-24T11:08:55;7.17;;;4.87;;
15102;SDS011;7652;53.584;9.998;2023-01-24T11:12:04;5.70;;;4.73;;
15102;SDS011;7652;53.584;9.998;2023-01-24T11:15:16;6.57;;;4.70;;
15102;SDS011;7652;53.584;9.998;2023-01-24T11:18:25;7.20;;;5.30;;
15102;SDS011;7652;53.584;9.998;2023-01-24T11:21:30;9.37;;;5.10;;
15102;SDS011;7652;53.584;9.998;2023-01-24T11:24:34;9.93;;;6.53;;
15102;SDS011;7652;53.584;9.998;2023-01-24T11:27:46;6.00;;;4.47;;
15102;SDS011;7652;53.584;9.998;2023-01-24T11:30:49;5.60;;;4.27;;
15102;SDS011;7652;53.584;9.998;2023-01-24T11:34:05;7.23;;;4.57;;
15102;SDS011;7652;53.584;9.998;2023-01-24T11:37:33;6.60;;;5.17;;
15102;SDS011;7652;53.584;9.998;2023-01-24T11:40:44;7.60;;;4.53;;
15102;SDS011;7652;53.584;9.998;2023-01-24T11:47:29;10.63;;;5.70;;
15102;SDS011;7652;53.584;9.998;2023-01-24T11:50:42;8.43;;;5.83;;
15102;SDS011;7652;53.584;9.998;2023-01-24T11:53:54;11.20;;;5.93;;
15102;SDS011;7652;53.584;9.998;2023-01-24T11:57:20;9.53;;;5.27;;
15102;SDS011;7652;53.584;9.998;2023-01-24T12:00:36;8.57;;;5.60;;
15102;SDS011;7652;53.584;9.998;2023-01-24T12:03:49;5.77;;;4.53;;
15102;SDS011;7652;53.584;9.998;2023-01-24T12:07:06;8.23;;;5.30;;
15102;SDS011;7652;53.584;9.998;2023-01-24T12:10:16;6.73;;;5.33;;
15102;SDS011;7652;53.584;9.998;2023-01-24T12:13:27;7.27;;;5.67;;
15102;SDS011;7652;53.584;9.998;2023-01-24T12:16:41;7.43;;;5.43;;
15102;SDS011;7652;53.584;9.998;2023-01-24T12:20:06;8.30;;;6.10;;
15102;SDS011;7652;53.584;9.998;2023-01-24T12:23:35;8.47;;;5.63;;
15102;SDS011;7652;53.584;9.998;2023-01-24T12:26:45;6.37;;;5.33;;
15102;SDS011;7652;53.584;9.998;2023-01-24T12:29:54;8.33;;;6.00;;
15102;SDS011;7652;53.584;9.998;2023-01-24T12:33:02;8.87;;;5.97;;
15102;SDS011;7652;53.584;9.998;2023-01-24T12:36:16;8.40;;;5.20;;
15102;SDS011;7652;53.584;9.998;2023-01-24T12:39:29;8.40;;;5.80;;
15102;SDS011;7652;53.584;9.998;2023-01-24T12:42:43;8.53;;;5.50;;
15102;SDS011;7652;53.584;9.998;2023-01-24T12:45:56;7.57;;;5.53;;
15102;SDS011;7652;53.584;9.998;2023-01-24T12:49:07;9.30;;;5.90;;
15102;SDS011;7652;53.584;9.998;2023-01-24T12:52:20;9.87;;;5.50;;
15102;SDS011;7652;53.584;9.998;2023-01-24T12:55:30;9.37;;;6.00;;
15102;SDS011;7652;53.584;9.998;2023-01-24T12:58:37;9.27;;;5.70;;
15102;SDS011;7652;53.584;9.998;2023-01-24T13:02:00;7.70;;;5.47;;
15102;SDS011;7652;53.584;9.998;2023-01-24T13:05:27;7.20;;;4.80;;
15102;SDS011;7652;53.584;9.998;2023-01-24T13:08:42;8.20;;;6.07;;
15102;SDS011;7652;53.584;9.998;2023-01-24T13:11:54;6.80;;;4.97;;
15102;SDS011;7652;53.584;9.998;2023-01-24T13:15:00;7.37;;;6.07;;
15102;SDS011;7652;53.584;9.998;2023-01-24T13:18:09;8.67;;;5.60;;
15102;SDS011;7652;53.584;9.998;2023-01-24T13:21:24;8.90;;;6.07;;
15102;SDS011;7652;53.584;9.998;2023-01-24T13:24:38;7.83;;;5.57;;
15102;SDS011;7652;53.584;9.998;2023-01-24T13:27:53;8.10;;;6.07;;
15102;SDS011;7652;53.584;9.998;2023-01-24T13:31:04;8.53;;;5.43;;
15102;SDS011;7652;53.584;9.998;2023-01-24T13:34:15;8.97;;;5.53;;
15102;SDS011;7652;53.584;9.998;2023-01-24T13:37:23;8.07;;;6.07;;
15102;SDS011;7652;53.584;9.998;2023-01-24T13:40:28;8.13;;;6.20;;
15102;SDS011;7652;53.584;9.998;2023-01-24T13:43:57;7.77;;;5.60;;
15102;SDS011;7652;53.584;9.998;2023-01-24T13:47:02;9.80;;;6.00;;
15102;SDS011;7652;53.584;9.998;2023-01-24T13:50:26;8.43;;;6.30;;
15102;SDS011;7652;53.584;9.998;2023-01-24T13:53:56;10.37;;;6.00;;
15102;SDS011;7652;53.584;9.998;2023-01-24T14:00:26;8.03;;;5.73;;
15102;SDS011;7652;53.584;9.998;2023-01-24T14:03:31;8.17;;;5.93;;
15102;SDS011;7652;53.584;9.998;2023-01-24T14:06:39;11.97;;;7.00;;
15102;SDS011;7652;53.584;9.998;2023-01-24T14:09:44;9.63;;;6.20;;
15102;SDS011;7652;53.584;9.998;2023-01-24T14:12:51;10.77;;;6.70;;
15102;SDS011;7652;53.584;9.998;2023-01-24T14:15:57;8.53;;;5.90;;
15102;SDS011;7652;53.584;9.998;2023-01-24T14:19:04;9.10;;;6.13;;
15102;SDS011;7652;53.584;9.998;2023-01-24T14:22:19;9.77;;;6.33;;
15102;SDS011;7652;53.584;9.998;2023-01-24T14:25:38;8.67;;;5.80;;
15102;SDS011;7652;53.584;9.998;2023-01-24T14:28:45;7.60;;;5.80;;
15102;SDS011;7652;53.584;9.998;2023-01-24T14:31:54;7.70;;;5.50;;
15102;SDS011;7652;53.584;9.998;2023-01-24T14:35:05;11.80;;;6.30;;
15102;SDS011;7652;53.584;9.998;2023-01-24T14:38:17;7.47;;;5.53;;
15102;SDS011;7652;53.584;9.998;2023-01-24T14:41:21;7.77;;;6.03;;
15102;SDS011;7652;53.584;9.998;2023-01-24T14:44:25;9.30;;;6.27;;
15102;SDS011;7652;53.584;9.998;2023-01-24T14:47:32;9.17;;;6.57;;
15102;SDS011;7652;53.584;9.998;2023-01-24T14:50:36;7.93;;;6.17;;
15102;SDS011;7652;53.584;9.998;2023-01-24T14:53:41;8.87;;;6.43;;
15102;SDS011;7652;53.584;9.998;2023-01-24T14:56:49;9.20;;;6.27;;
15102;SDS011;7652;53.584;9.998;2023-01-24T14:59:59;9.87;;;6.23;;
15102;SDS011;7652;53.584;9.998;2023-01-24T15:03:05;10.90;;;6.67;;
15102;SDS011;7652;53.584;9.998;2023-01-24T15:06:14;9.77;;;6.47;;
15102;SDS011;7652;53.584;9.998;2023-01-24T15:09:19;8.77;;;5.93;;
15102;SDS011;7652;53.584;9.998;2023-01-24T15:12:24;8.47;;;6.63;;
15102;SDS011;7652;53.584;9.998;2023-01-24T15:15:30;8.17;;;6.67;;
15102;SDS011;7652;53.584;9.998;2023-01-24T15:18:40;9.00;;;6.50;;
15102;SDS011;7652;53.584;9.998;2023-01-24T15:21:45;9.60;;;6.63;;
15102;SDS011;7652;53.584;9.998;2023-01-24T15:24:50;10.33;;;7.27;;
15102;SDS011;7652;53.584;9.998;2023-01-24T15:27:54;10.13;;;7.07;;
15102;SDS011;7652;53.584;9.998;2023-01-24T15:30:59;10.60;;;7.30;;
15102;SDS011;7652;53.584;9.998;2023-01-24T15:34:13;8.13;;;6.33;;
15102;SDS011;7652;53.584;9.998;2023-01-24T15:37:20;10.13;;;7.40;;
15102;SDS011;7652;53.584;9.998;2023-01-24T15:40:23;10.03;;;6.67;;
15102;SDS011;7652;53.584;9.998;2023-01-24T15:43:28;9.13;;;7.00;;
15102;SDS011;7652;53.584;9.998;2023-01-24T15:46:52;10.70;;;6.77;;
15102;SDS011;7652;53.584;9.998;2023-01-24T15:50:17;8.87;;;6.63;;
15102;SDS011;7652;53.584;9.998;2023-01-24T15:53:39;9.30;;;6.80;;
15102;SDS011;7652;53.584;9.998;2023-01-24T15:56:43;10.07;;;7.13;;
15102;SDS011;7652;53.584;9.998;2023-01-24T15:59:55;11.87;;;7.77;;
15102;SDS011;7652;53.584;9.998;2023-01-24T16:03:01;10.27;;;7.20;;
15102;SDS011;7652;53.584;9.998;2023-01-24T16:06:06;12.33;;;8.17;;
15102;SDS011;7652;53.584;9.998;2023-01-24T16:09:09;14.80;;;7.57;;
15102;SDS011;7652;53.584;9.998;2023-01-24T16:12:12;9.73;;;7.90;;
15102;SDS011;7652;53.584;9.998;2023-01-24T16:15:17;10.07;;;7.70;;
15102;SDS011;7652;53.584;9.998;2023-01-24T16:18:22;10.37;;;7.30;;
15102;SDS011;7652;53.584;9.998;2023-01-24T16:21:26;10.33;;;7.73;;
15102;SDS011;7652;53.584;9.998;2023-01-24T16:24:29;8.97;;;6.93;;
15102;SDS011;7652;53.584;9.998;2023-01-24T16:27:32;11.03;;;7.73;;
15102;SDS011;7652;53.584;9.998;2023-01-24T16:30:35;11.70;;;7.87;;
15102;SDS011;7652;53.584;9.998;2023-01-24T16:33:38;11.00;;;8.00;;
15102;SDS011;7652;53.584;9.998;2023-01-24T16:36:42;12.17;;;7.80;;
15102;SDS011;7652;53.584;9.998;2023-01-24T16:39:45;10.73;;;7.93;;
15102;SDS011;7652;53.584;9.998;2023-01-24T16:42:49;12.83;;;8.47;;
15102;SDS011;7652;53.584;9.998;2023-01-24T16:45:52;11.33;;;8.37;;
15102;SDS011;7652;53.584;9.998;2023-01-24T16:48:55;12.97;;;9.00;;
15102;SDS011;7652;53.584;9.998;2023-01-24T16:52:00;13.40;;;8.63;;
15102;SDS011;7652;53.584;9.998;2023-01-24T16:55:19;12.67;;;8.60;;
15102;SDS011;7652;53.584;9.998;2023-01-24T16:58:22;10.03;;;8.43;;
15102;SDS011;7652;53.584;9.998;2023-01-24T17:01:25;13.47;;;9.27;;
15102;SDS011;7652;53.584;9.998;2023-01-24T17:04:31;13.87;;;8.83;;
15102;SDS011;7652;53.584;9.998;2023-01-24T17:07:36;13.53;;;8.77;;
15102;SDS011;7652;53.584;9.998;2023-01-24T17:10:39;13.30;;;9.07;;
15102;SDS011;7652;53.584;9.998;2023-01-24T17:13:43;13.93;;;8.90;;
15102;SDS011;7652;53.584;9.998;2023-01-24T17:16:46;14.03;;;9.73;;
15102;SDS011;7652;53.584;9.998;2023-01-24T17:19:50;17.80;;;10.27;;
15102;SDS011;7652;53.584;9.998;2023-01-24T17:22:54;13.97;;;9.37;;
15102;SDS011;7652;53.584;9.998;2023-01-24T17:26:00;15.13;;;10.23;;
15102;SDS011;7652;53.584;9.998;2023-01-24T17:29:04;14.03;;;9.57;;
15102;SDS011;7652;53.584;9.998;2023-01-24T17:32:07;16.87;;;11.37;;
15102;SDS011;7652;53.584;9.998;2023-01-24T17:35:10;15.50;;;10.13;;
15102;SDS011;7652;53.584;9.998;2023-01-24T17:38:14;20.00;;;11.30;;
15102;SDS011;7652;53.584;9.998;2023-01-24T17:41:18;15.13;;;11.13;;
15102;SDS011;7652;53.584;9.998;2023-01-24T17:44:22;15.23;;;10.30;;
15102;SDS011;7652;53.584;9.998;2023-01-24T17:47:26;17.63;;;10.53;;
15102;SDS011;7652;53.584;9.998;2023-01-24T17:50:29;14.43;;;10.00;;
15102;SDS011;7652;53.584;9.998;2023-01-24T17:53:33;14.37;;;10.33;;
15102;SDS011;7652;53.584;9.998;2023-01-24T17:56:37;14.93;;;9.80;;
15102;SDS011;7652;53.584;9.998;2023-01-24T17:59:40;15.33;;;10.03;;
15102;SDS011;7652;53.584;9.998;2023-01-24T18:02:44;19.53;;;11.13;;
15102;SDS011;7652;53.584;9.998;2023-01-24T18:05:48;17.53;;;10.03;;
15102;SDS011;7652;53.584;9.998;2023-01-24T18:08:52;18.90;;;10.93;;
15102;SDS011;7652;53.584;9.998;2023-01-24T18:11:55;16.00;;;11.00;;
15102;SDS011;7652;53.584;9.998;2023-01-24T18:14:58;17.73;;;10.97;;
15102;SDS011;7652;53.584;9.998;2023-01-24T18:18:02;17.37;;;10.27;;
15102;SDS011;7652;53.584;9.998;2023-01-24T18:21:08;15.63;;;10.30;;
15102;SDS011;7652;53.584;9.998;2023-01-24T18:24:13;18.97;;;11.10;;
15102;SDS011;7652;53.584;9.998;2023-01-24T18:27:16;15.57;;;10.50;;
15102;SDS011;7652;53.584;9.998;2023-01-24T18:30:20;20.40;;;11.87;;
15102;SDS011;7652;53.584;9.998;2023-01-24T18:33:23;18.40;;;11.40;;
15102;SDS011;7652;53.584;9.998;2023-01-24T18:36:27;17.40;;;11.00;;
15102;SDS011;7652;53.584;9.998;2023-01-24T18:39:32;17.37;;;11.23;;
15102;SDS011;7652;53.584;9.998;2023-01-24T18:42:35;19.60;;;11.17;;
15102;SDS011;7652;53.584;9.998;2023-01-24T18:45:38;15.93;;;10.97;;
15102;SDS011;7652;53.584;9.998;2023-01-24T18:48:41;18.57;;;11.60;;
15102;SDS011;7652;53.584;9.998;2023-01-24T18:51:45;20.47;;;11.53;;
15102;SDS011;7652;53.584;9.998;2023-01-24T18:54:52;18.23;;;11.90;;
15102;SDS011;7652;53.584;9.998;2023-01-24T18:57:55;17.23;;;11.97;;
15102;SDS011;7652;53.584;9.998;2023-01-24T19:00:58;20.50;;;11.70;;
15102;SDS011;7652;53.584;9.998;2023-01-24T19:04:02;20.73;;;12.47;;
15102;SDS011;7652;53.584;9.998;2023-01-24T19:07:05;18.83;;;11.23;;
15102;SDS011;7652;53.584;9.998;2023-01-24T19:10:10;17.57;;;11.57;;